Time;durP1;ratioP1;P1;durP2;ratioP2;P2;SDS_P1;SDS_P2;PMS_P1;PMS_P2;Temp;Humidity;BMP_temperature;BMP_pressure;BME280_temperature;BME280_humidity;BME280_pressure;Samples;Min_cycle;Max_cycle;Signal;HPM_P1;HPM_P2
2023/06/10 00:00:34;;;;;;;1999.90;999.90;;;15.50;99.90;;;;;;6314465;22;20066;-76
2023/06/10 00:02:59;;;;;;;1999.90;999.90;;;15.50;99.90;;;;;;6314207;22;20007;-75
2023/06/10 00:05:25;;;;;;;1999.90;999.90;;;15.50;99.90;;;;;;6314634;22;20007;-75
2023/06/10 00:07:50;;;;;;;1999.90;999.90;;;15.50;99.90;;;;;;6313535;22;20019;-75
2023/06/10 00:10:16;;;;;;;1999.90;999.90;;;15.40;99.90;;;;;;6314507;22;20008;-75
2023/06/10 00:12:43;;;;;;;1999.90;999.90;;;15.40;99.90;;;;;;6314134;22;20033;-75
2023/06/10 00:15:09;;;;;;;1999.90;999.90;;;15.30;99.90;;;;;;6314502;22;20391;-75
2023/06/10 00:17:38;;;;;;;1999.90;999.90;;;15.30;99.90;;;;;;6314057;22;20015;-75
2023/06/10 00:20:08;;;;;;;1999.90;999.90;;;15.20;99.90;;;;;;6314544;22;20145;-75
2023/06/10 00:22:34;;;;;;;1999.90;999.90;;;15.20;99.90;;;;;;6314205;22;20057;-75
2023/06/10 00:25:00;;;;;;;1999.90;999.90;;;15.10;99.90;;;;;;6288124;22;20406;-75
2023/06/10 00:27:31;;;;;;;1999.90;999.90;;;15.10;99.90;;;;;;6318066;22;20011;-75
2023/06/10 00:29:56;;;;;;;1999.90;999.90;;;15.10;99.90;;;;;;6318278;22;20004;-75
2023/06/10 00:32:22;;;;;;;1999.90;999.90;;;15.10;99.90;;;;;;6317490;22;20089;-75
2023/06/10 00:34:47;;;;;;;1999.90;999.90;;;15.00;99.90;;;;;;6318320;22;20275;-76
2023/06/10 00:37:13;;;;;;;1999.90;999.90;;;15.00;99.90;;;;;;6290302;22;20019;-75
2023/06/10 00:39:39;;;;;;;1999.90;999.90;;;14.90;99.90;;;;;;6290367;22;20008;-75
2023/06/10 00:42:06;;;;;;;1999.90;999.90;;;14.80;99.90;;;;;;6317507;22;20083;-75
2023/06/10 00:44:32;;;;;;;1999.90;999.90;;;14.80;99.90;;;;;;6318114;22;20008;-75
2023/06/10 00:46:58;;;;;;;1999.90;999.90;;;14.80;99.90;;;;;;6317963;22;20011;-75
2023/06/10 00:49:24;;;;;;;1999.90;999.90;;;14.80;99.90;;;;;;6290099;22;20014;-75
2023/06/10 00:51:51;;;;;;;1999.90;999.90;;;14.70;99.90;;;;;;6317639;22;20014;-75
2023/06/10 00:54:17;;;;;;;1999.90;999.90;;;14.70;99.90;;;;;;6317569;22;20003;-75
2023/06/10 00:56:43;;;;;;;1999.90;999.90;;;14.60;99.90;;;;;;6290122;22;20010;-75
2023/06/10 00:59:09;;;;;;;1999.90;999.90;;;14.60;99.90;;;;;;6290412;22;20081;-75
2023/06/10 01:01:37;;;;;;;1999.90;999.90;;;14.60;99.90;;;;;;6317484;22;20435;-75
2023/06/10 01:04:03;;;;;;;1999.90;999.90;;;14.50;99.90;;;;;;6318138;22;20448;-75
2023/06/10 01:06:49;;;;;;;1999.90;999.90;;;14.50;99.90;;;;;;6290236;22;20004;-76
2023/06/10 01:09:28;;;;;;;1999.90;999.90;;;14.50;99.90;;;;;;6316911;22;20018;-76
2023/06/10 01:12:08;;;;;;;1999.90;999.90;;;14.50;99.90;;;;;;6288894;22;20082;-76
2023/06/10 01:14:33;;;;;;;1999.90;999.90;;;14.50;99.90;;;;;;6316767;22;20034;-75
2023/06/10 01:17:00;;;;;;;1999.90;999.90;;;14.50;99.90;;;;;;6316307;22;20035;-75
2023/06/10 01:19:25;;;;;;;1999.90;999.90;;;14.40;99.90;;;;;;6315846;22;20004;-75
2023/06/10 01:21:51;;;;;;;1999.90;999.90;;;14.40;99.90;;;;;;6316302;22;20008;-75
2023/06/10 01:24:18;;;;;;;1999.90;999.90;;;14.40;99.90;;;;;;6316662;22;20050;-76
2023/06/10 01:26:44;;;;;;;1999.90;999.90;;;14.30;99.90;;;;;;6316297;22;20008;-75
2023/06/10 01:29:33;;;;;;;1999.90;999.90;;;14.30;99.90;;;;;;6316616;22;20008;-75
2023/06/10 01:32:11;;;;;;;1999.90;999.90;;;14.20;99.90;;;;;;6316314;22;20003;-75
2023/06/10 01:34:39;;;;;;;1999.90;999.90;;;14.20;99.90;;;;;;6316611;22;20014;-75
2023/06/10 01:37:05;;;;;;;1999.90;999.90;;;14.20;99.90;;;;;;6314276;22;20078;-75
2023/06/10 01:39:31;;;;;;;1999.90;999.90;;;14.20;99.90;;;;;;6314547;22;20008;-75
2023/06/10 01:41:57;;;;;;;1999.90;999.90;;;14.20;99.90;;;;;;6314245;22;20008;-75
2023/06/10 01:44:23;;;;;;;1999.90;999.90;;;14.20;99.90;;;;;;6314575;22;19999;-75
2023/06/10 01:46:49;;;;;;;1999.90;999.90;;;14.20;99.90;;;;;;6314300;22;20012;-75
2023/06/10 01:49:15;;;;;;;1999.90;999.90;;;14.10;99.90;;;;;;6314605;22;20026;-75
2023/06/10 01:51:41;;;;;;;1999.90;999.90;;;14.10;99.90;;;;;;6314130;22;20007;-75
2023/06/10 01:54:07;;;;;;;1999.90;999.90;;;14.00;99.90;;;;;;6314641;22;20075;-75
2023/06/10 01:56:33;;;;;;;1999.90;999.90;;;14.00;99.90;;;;;;6314128;22;20031;-75
2023/06/10 01:59:01;;;;;;;1999.90;999.90;;;13.90;99.90;;;;;;6314639;22;20008;-75
2023/06/10 02:01:27;;;;;;;1999.90;999.90;;;13.90;99.90;;;;;;6314295;22;20074;-75
2023/06/10 02:03:53;;;;;;;1999.90;999.90;;;13.90;99.90;;;;;;6314488;22;20431;-75
2023/06/10 02:06:18;;;;;;;1999.90;999.90;;;13.90;99.90;;;;;;6314204;22;20003;-75
2023/06/10 02:08:44;;;;;;;1999.90;999.90;;;13.90;99.90;;;;;;6314275;22;20062;-75
2023/06/10 02:11:09;;;;;;;1999.90;999.90;;;13.90;99.90;;;;;;6314037;22;20012;-75
2023/06/10 02:13:35;;;;;;;1999.90;999.90;;;13.90;99.90;;;;;;6314535;22;20012;-75
2023/06/10 02:16:01;;;;;;;1999.90;999.90;;;13.90;99.90;;;;;;6314354;22;20443;-75
2023/06/10 02:18:27;;;;;;;1999.90;999.90;;;13.90;99.90;;;;;;6286736;22;20165;-75
2023/06/10 02:20:54;;;;;;;1999.90;999.90;;;13.90;99.90;;;;;;6314447;22;20478;-75
2023/06/10 02:23:19;;;;;;;1999.90;999.90;;;14.00;99.90;;;;;;6314276;22;20016;-75
2023/06/10 02:25:45;;;;;;;1999.90;999.90;;;13.90;99.90;;;;;;6314553;22;20015;-75
2023/06/10 02:28:11;;;;;;;1999.90;999.90;;;13.80;99.90;;;;;;6314255;22;20444;-75
2023/06/10 02:30:42;;;;;;;1999.90;999.90;;;13.80;99.90;;;;;;6314263;22;20011;-75
2023/06/10 02:33:11;;;;;;;1999.90;999.90;;;13.80;99.90;;;;;;6314174;22;20030;-75
2023/06/10 02:35:38;;;;;;;1999.90;999.90;;;13.80;99.90;;;;;;6314396;22;20883;-75
2023/06/10 02:38:03;;;;;;;1999.90;999.90;;;13.90;99.90;;;;;;6314074;22;20015;-75
2023/06/10 02:40:29;;;;;;;1999.90;999.90;;;13.80;99.90;;;;;;6314340;22;20437;-75
2023/06/10 02:42:55;;;;;;;1999.90;999.90;;;13.80;99.90;;;;;;6314144;22;20008;-75
2023/06/10 02:45:20;;;;;;;1999.90;999.90;;;13.70;99.90;;;;;;6314478;22;20416;-75
2023/06/10 02:47:46;;;;;;;1999.90;999.90;;;13.80;99.90;;;;;;6313942;22;20018;-75
2023/06/10 02:50:11;;;;;;;1999.90;999.90;;;13.80;99.90;;;;;;6286663;22;20014;-75
2023/06/10 02:52:37;;;;;;;1999.90;999.90;;;13.70;99.90;;;;;;6314158;22;20008;-75
2023/06/10 02:55:03;;;;;;;1999.90;999.90;;;13.70;99.90;;;;;;6314218;22;20331;-75
2023/06/10 02:57:29;;;;;;;1999.90;999.90;;;13.60;99.90;;;;;;6313815;22;20011;-75
2023/06/10 02:59:54;;;;;;;1999.90;999.90;;;13.70;99.90;;;;;;6314216;22;20400;-75
2023/06/10 03:02:20;;;;;;;1999.90;999.90;;;13.70;99.90;;;;;;6313863;22;20008;-75
2023/06/10 03:04:45;;;;;;;1999.90;999.90;;;13.70;99.90;;;;;;6338804;22;20054;-75
2023/06/10 03:07:11;;;;;;;1999.90;999.90;;;13.70;99.90;;;;;;6313611;22;20012;-75
2023/06/10 03:09:37;;;;;;;1999.90;999.90;;;13.70;99.90;;;;;;6314230;22;20000;-75
2023/06/10 03:12:03;;;;;;;1999.90;999.90;;;13.70;99.90;;;;;;6313885;22;20443;-75
2023/06/10 03:14:28;;;;;;;1999.90;999.90;;;13.70;99.90;;;;;;6314313;22;20004;-75
2023/06/10 03:16:54;;;;;;;1999.90;999.90;;;13.70;99.90;;;;;;6313717;22;20351;-75
2023/06/10 03:19:21;;;;;;;1999.90;999.90;;;13.70;99.90;;;;;;6314258;22;20000;-75
2023/06/10 03:21:57;;;;;;;1999.90;999.90;;;13.70;99.90;;;;;;6313795;22;20444;-75
2023/06/10 03:24:23;;;;;;;1999.90;999.90;;;13.60;99.90;;;;;;6286523;22;20027;-75
2023/06/10 03:26:49;;;;;;;1999.90;999.90;;;13.60;99.90;;;;;;6313697;22;20004;-75
2023/06/10 03:29:14;;;;;;;1999.90;999.90;;;13.70;99.90;;;;;;6314222;22;20107;-75
2023/06/10 03:31:40;;;;;;;1999.90;999.90;;;13.60;99.90;;;;;;6313794;22;20042;-75
2023/06/10 03:34:05;;;;;;;1999.90;999.90;;;13.60;99.90;;;;;;6314123;22;20008;-75
2023/06/10 03:36:31;;;;;;;1999.90;999.90;;;13.60;99.90;;;;;;6313925;22;20007;-75
2023/06/10 03:38:56;;;;;;;1999.90;999.90;;;13.60;99.90;;;;;;6314163;22;20015;-75
2023/06/10 03:41:22;;;;;;;1999.90;999.90;;;13.60;99.90;;;;;;6313758;22;20011;-75
2023/06/10 03:43:48;;;;;;;1999.90;999.90;;;13.70;99.90;;;;;;6314147;22;20443;-75
2023/06/10 03:46:14;;;;;;;1999.90;999.90;;;13.70;99.90;;;;;;6313808;22;20004;-75
2023/06/10 03:48:39;;;;;;;1999.90;999.90;;;13.70;99.90;;;;;;6313993;22;20004;-75
2023/06/10 03:51:05;;;;;;;1999.90;999.90;;;13.70;99.90;;;;;;6286195;22;20443;-75
2023/06/10 03:53:31;;;;;;;1999.90;999.90;;;13.70;99.90;;;;;;6313999;22;20343;-75
2023/06/10 03:55:57;;;;;;;1999.90;999.90;;;13.70;99.90;;;;;;6313887;22;20458;-75
2023/06/10 03:58:23;;;;;;;1999.90;999.90;;;13.70;99.90;;;;;;6313852;22;20015;-75
2023/06/10 04:00:49;;;;;;;1999.90;999.90;;;13.80;99.90;;;;;;6313234;22;20012;-75
2023/06/10 04:03:15;;;;;;;1999.90;999.90;;;13.80;99.90;;;;;;6313988;22;20054;-75
2023/06/10 04:05:43;;;;;;;1999.90;999.90;;;13.80;99.90;;;;;;6314011;22;20004;-75
2023/06/10 04:08:09;;;;;;;1999.90;999.90;;;13.70;99.90;;;;;;6313248;22;20007;-75
2023/06/10 04:10:35;;;;;;;1999.90;999.90;;;13.70;99.90;;;;;;6313858;22;20004;-76
2023/06/10 04:13:01;;;;;;;1999.90;999.90;;;13.80;99.90;;;;;;6313599;22;20054;-76
2023/06/10 04:15:26;;;;;;;1999.90;999.90;;;13.80;99.90;;;;;;6313802;22;20016;-75
2023/06/10 04:17:52;;;;;;;1999.90;999.90;;;13.90;99.90;;;;;;6313505;22;20012;-76
2023/06/10 04:20:18;;;;;;;1999.90;999.90;;;13.90;99.90;;;;;;6313884;22;20058;-76
2023/06/10 04:22:44;;;;;;;1999.90;999.90;;;13.90;99.90;;;;;;6313562;22;20332;-75
2023/06/10 04:25:09;;;;;;;1999.90;999.90;;;13.90;99.90;;;;;;6313766;22;20031;-75
2023/06/10 04:27:35;;;;;;;1999.90;999.90;;;13.90;99.90;;;;;;6313297;22;20501;-75
2023/06/10 04:30:01;;;;;;;1999.90;999.90;;;14.00;99.90;;;;;;6313798;22;20000;-75
2023/06/10 04:32:26;;;;;;;1999.90;999.90;;;14.00;99.90;;;;;;6313494;22;20099;-76
2023/06/10 04:34:52;;;;;;;1999.90;999.90;;;14.00;99.90;;;;;;6313602;22;20031;-76
2023/06/10 04:37:18;;;;;;;1999.90;999.90;;;14.10;99.90;;;;;;6313111;22;20008;-75
2023/06/10 04:39:43;;;;;;;1999.90;999.90;;;14.10;99.90;;;;;;6313686;22;20015;-75
2023/06/10 04:42:09;;;;;;;1999.90;999.90;;;14.10;99.90;;;;;;6313498;22;20007;-76
2023/06/10 04:44:34;;;;;;;1999.90;999.90;;;14.20;99.90;;;;;;6313600;22;20359;-76
2023/06/10 04:47:00;;;;;;;1999.90;999.90;;;14.20;99.90;;;;;;6337964;22;20008;-75
2023/06/10 04:49:26;;;;;;;1999.90;999.90;;;14.30;99.90;;;;;;6313507;22;20027;-75
2023/06/10 04:51:51;;;;;;;1999.90;999.90;;;14.30;99.90;;;;;;6337540;22;20011;-75
2023/06/10 04:54:17;;;;;;;1999.90;999.90;;;14.40;99.90;;;;;;6313372;22;20066;-75
2023/06/10 04:56:42;;;;;;;1999.90;999.90;;;14.40;99.90;;;;;;6313133;22;20088;-75
2023/06/10 04:59:08;;;;;;;1999.90;999.90;;;14.50;99.90;;;;;;6313607;22;20016;-75
2023/06/10 05:01:33;;;;;;;1999.90;999.90;;;14.50;99.90;;;;;;6313089;22;20003;-75
2023/06/10 05:03:59;;;;;;;1999.90;999.90;;;14.60;99.90;;;;;;6313486;22;20004;-76
2023/06/10 05:06:24;;;;;;;1999.90;999.90;;;14.70;99.90;;;;;;6312960;22;20130;-76
2023/06/10 05:08:50;;;;;;;1999.90;999.90;;;14.80;99.90;;;;;;6313186;22;20082;-76
2023/06/10 05:11:16;;;;;;;1999.90;999.90;;;14.90;99.90;;;;;;6313678;22;20309;-76
2023/06/10 05:13:43;;;;;;;1999.90;999.90;;;15.10;99.90;;;;;;6325392;22;20011;-77
2023/06/10 05:16:09;;;;;;;1999.90;999.90;;;15.30;99.90;;;;;;6300674;22;20838;-77
2023/06/10 05:18:35;;;;;;;1999.90;999.90;;;15.40;99.90;;;;;;6328671;22;20056;-77
2023/06/10 05:21:02;;;;;;;1999.90;999.90;;;15.50;99.90;;;;;;6330225;22;20432;-77
2023/06/10 05:23:27;;;;;;;1999.90;999.90;;;15.70;99.90;;;;;;6302923;22;20000;-77
2023/06/10 05:25:53;;;;;;;1999.90;999.90;;;15.80;99.90;;;;;;6330925;22;20081;-77
2023/06/10 05:28:19;;;;;;;1999.90;999.90;;;16.00;99.90;;;;;;6331073;22;20007;-77
2023/06/10 05:30:45;;;;;;;1999.90;999.90;;;16.10;99.90;;;;;;6330109;22;19999;-77
2023/06/10 05:33:10;;;;;;;1999.90;999.90;;;16.20;99.90;;;;;;6355933;22;20377;-77
2023/06/10 05:35:36;;;;;;;1999.90;999.90;;;16.40;99.90;;;;;;6331629;22;20079;-77
2023/06/10 05:38:02;;;;;;;1999.90;999.90;;;16.70;99.90;;;;;;6332311;22;20015;-77
2023/06/10 05:40:28;;;;;;;1999.90;999.90;;;16.80;99.90;;;;;;6306100;22;20004;-76
2023/06/10 05:42:53;;;;;;;1999.90;999.90;;;16.90;99.90;;;;;;6333928;22;20008;-77
2023/06/10 05:45:19;;;;;;;1999.90;999.90;;;17.10;99.90;;;;;;6335077;22;20007;-77
2023/06/10 05:47:44;;;;;;;1999.90;999.90;;;17.30;99.90;;;;;;6308011;22;20010;-77
2023/06/10 05:50:10;;;;;;;1999.90;999.90;;;17.50;99.90;;;;;;6307144;22;20000;-77
2023/06/10 05:52:36;;;;;;;1999.90;999.90;;;17.50;99.90;;;;;;6330908;22;20015;-77
2023/06/10 05:55:05;;;;;;;1999.90;999.90;;;17.70;99.90;;;;;;6329238;22;19996;-77
2023/06/10 05:57:31;;;;;;;1999.90;999.90;;;17.90;99.90;;;;;;6329239;22;20004;-77
2023/06/10 05:59:56;;;;;;;1999.90;999.90;;;18.00;99.90;;;;;;6327653;22;20331;-77
2023/06/10 06:02:22;;;;;;;1999.90;999.90;;;18.00;99.90;;;;;;6328579;22;20459;-77
2023/06/10 06:04:47;;;;;;;1999.90;999.90;;;18.20;99.90;;;;;;6329042;22;20083;-77
2023/06/10 06:07:14;;;;;;;1999.90;999.90;;;18.30;99.90;;;;;;6298730;22;20008;-77
2023/06/10 06:09:39;;;;;;;1999.90;999.90;;;18.50;99.90;;;;;;6324775;22;20004;-77
2023/06/10 06:12:09;;;;;;;1999.90;999.90;;;18.60;99.90;;;;;;6323467;22;20011;-77
2023/06/10 06:14:38;;;;;;;1999.90;999.90;;;18.60;99.90;;;;;;6323149;22;20003;-77
2023/06/10 06:17:03;;;;;;;1999.90;999.90;;;18.70;99.90;;;;;;6324125;22;20011;-77
2023/06/10 06:19:29;;;;;;;1999.90;999.90;;;18.90;99.90;;;;;;6323029;22;20041;-77
2023/06/10 06:21:55;;;;;;;1999.90;999.90;;;18.90;99.90;;;;;;6322683;22;20018;-77
2023/06/10 06:24:20;;;;;;;1999.90;999.90;;;18.90;99.90;;;;;;6320799;22;20050;-77
2023/06/10 06:26:46;;;;;;;1999.90;999.90;;;19.10;99.90;;;;;;6321060;22;20424;-76
2023/06/10 06:29:11;;;;;;;1999.90;999.90;;;19.20;99.90;;;;;;6298627;22;20753;-77
2023/06/10 06:31:37;;;;;;;1999.90;999.90;;;19.30;99.90;;;;;;6295408;22;20011;-77
2023/06/10 06:34:02;;;;;;;1999.90;999.90;;;19.30;99.90;;;;;;6326648;22;20004;-76
2023/06/10 06:36:28;;;;;;;1999.90;999.90;;;19.50;99.90;;;;;;6299987;22;20066;-77
2023/06/10 06:38:53;;;;;;;1999.90;999.90;;;19.60;99.90;;;;;;6329250;22;20003;-77
2023/06/10 06:41:19;;;;;;;1999.90;999.90;;;19.70;99.90;;;;;;6324432;22;20028;-76
2023/06/10 06:43:44;;;;;;;1999.90;999.90;;;19.90;99.90;;;;;;6322829;22;20007;-76
2023/06/10 06:46:10;;;;;;;1999.90;999.90;;;20.00;99.90;;;;;;6326150;22;20003;-77
2023/06/10 06:48:35;;;;;;;1999.90;999.90;;;20.20;99.90;;;;;;6325761;22;20352;-77
2023/06/10 06:51:01;;;;;;;1999.90;999.90;;;20.20;99.90;;;;;;6320878;22;20038;-76
2023/06/10 06:53:27;;;;;;;1999.90;999.90;;;20.30;99.90;;;;;;6325052;22;20121;-78
2023/06/10 06:55:52;;;;;;;1999.90;999.90;;;20.40;99.90;;;;;;6328910;22;20455;-76
2023/06/10 06:58:18;;;;;;;1999.90;999.90;;;20.60;99.90;;;;;;6328084;22;20043;-77
2023/06/10 07:00:43;;;;;;;1999.90;999.90;;;20.80;99.90;;;;;;6329564;22;20012;-76
2023/06/10 07:03:09;;;;;;;1999.90;999.90;;;22.60;99.90;;;;;;6325866;22;20008;-78
2023/06/10 07:05:34;;;;;;;1999.90;999.90;;;21.10;99.90;;;;;;6326022;22;19996;-78
2023/06/10 07:08:00;;;;;;;1999.90;999.90;;;21.20;99.90;;;;;;6321861;22;20011;-78
2023/06/10 07:10:26;;;;;;;1999.90;999.90;;;21.30;99.90;;;;;;6324520;22;20038;-77
2023/06/10 07:12:53;;;;;;;1999.90;999.90;;;21.50;99.90;;;;;;6326853;22;20058;-76
2023/06/10 07:15:18;;;;;;;1999.90;999.90;;;21.60;99.90;;;;;;6326659;22;19992;-76
2023/06/10 07:17:44;;;;;;;1999.90;999.90;;;21.80;99.90;;;;;;6323512;22;20004;-76
2023/06/10 07:20:10;;;;;;;1999.90;999.90;;;21.90;99.80;;;;;;6319095;22;20000;-77
2023/06/10 07:22:36;;;;;;;1999.90;999.90;;;22.20;98.90;;;;;;6316033;22;20023;-78
2023/06/10 07:25:01;;;;;;;1999.90;999.90;;;22.40;98.30;;;;;;6315083;22;20049;-79
2023/06/10 07:27:27;;;;;;;1999.90;999.90;;;22.40;97.80;;;;;;6314654;22;20015;-77
2023/06/10 07:29:52;;;;;;;1999.90;999.90;;;22.40;97.60;;;;;;6315339;22;20012;-78
2023/06/10 07:32:22;;;;;;;1999.90;999.90;;;22.50;97.90;;;;;;6313362;22;20446;-77
2023/06/10 07:34:47;;;;;;;1999.90;999.90;;;22.80;97.80;;;;;;6314467;22;20000;-77
2023/06/10 07:37:13;;;;;;;1999.90;999.90;;;23.00;97.90;;;;;;6314439;22;20149;-75
2023/06/10 07:39:38;;;;;;;1999.90;999.90;;;23.10;97.00;;;;;;6314450;22;20010;-76
2023/06/10 07:42:04;;;;;;;1999.90;999.90;;;23.20;96.20;;;;;;6313990;22;20085;-76
2023/06/10 07:44:30;;;;;;;1999.90;999.90;;;23.40;96.30;;;;;;6314549;22;20003;-76
2023/06/10 07:46:55;;;;;;;1999.90;999.90;;;23.50;96.10;;;;;;6314482;22;20489;-74
2023/06/10 07:49:21;;;;;;;1999.90;999.90;;;23.70;95.80;;;;;;6291004;22;20019;-76
2023/06/10 07:51:46;;;;;;;1999.90;999.90;;;23.90;96.00;;;;;;6317015;22;20011;-76
2023/06/10 07:54:12;;;;;;;1999.90;999.90;;;23.90;95.30;;;;;;6315554;22;20003;-75
2023/06/10 07:56:38;;;;;;;1999.90;999.90;;;24.10;94.20;;;;;;6313960;22;20003;-75
2023/06/10 07:59:03;;;;;;;1999.90;999.90;;;24.20;94.20;;;;;;6314448;22;20004;-75
2023/06/10 08:01:30;;;;;;;1999.90;999.90;;;24.50;94.00;;;;;;6315269;22;20053;-75
2023/06/10 08:03:55;;;;;;;1999.90;999.90;;;24.70;93.40;;;;;;6316594;22;20008;-77
2023/06/10 08:06:21;;;;;;;1999.90;999.90;;;25.00;92.60;;;;;;6315706;22;20004;-77
2023/06/10 08:08:46;;;;;;;1999.90;999.90;;;25.00;92.70;;;;;;6288012;22;20023;-77
2023/06/10 08:11:12;;;;;;;1999.90;999.90;;;25.00;92.70;;;;;;6314633;22;20010;-78
2023/06/10 08:13:38;;;;;;;1999.90;999.90;;;25.20;92.60;;;;;;6315889;22;20012;-76
2023/06/10 08:16:04;;;;;;;1999.90;999.90;;;25.40;92.50;;;;;;6314682;22;20025;-75
2023/06/10 08:18:29;;;;;;;1999.90;999.90;;;25.50;91.60;;;;;;6287955;22;20020;-76
